Time;durP1;ratioP1;P1;durP2;ratioP2;P2;SDS_P1;SDS_P2;PMS_P1;PMS_P2;Temp;Humidity;BMP_temperature;BMP_pressure;BME280_temperature;BME280_humidity;BME280_pressure;Samples;Min_cycle;Max_cycle;Signal;HPM_P1;HPM_P2
2021/12/14 00:00:46;;;;;;;4.00;3.17;;;;;;;;;;5019838;28;20547;-65
2021/12/14 00:03:14;;;;;;;3.27;2.97;;;;;;;;;;5037614;28;20207;-65
2021/12/14 00:05:41;;;;;;;4.97;3.50;;;;;;;;;;5038392;28;20172;-65
2021/12/14 00:08:11;;;;;;;4.50;3.40;;;;;;;;;;5037410;28;20249;-65
2021/12/14 00:13:23;;;;;;;5.27;3.20;;;;;;;;;;5038081;28;20281;-65
2021/12/14 00:15:50;;;;;;;4.53;3.23;;;;;;;;;;5037494;28;20155;-65
2021/12/14 00:18:16;;;;;;;3.27;2.90;;;;;;;;;;5037755;28;20232;-65
2021/12/14 00:20:47;;;;;;;5.03;3.47;;;;;;;;;;5042367;28;20179;-65
2021/12/14 00:25:46;;;;;;;4.43;3.43;;;;;;;;;;5058226;28;20191;-65
2021/12/14 00:28:16;;;;;;;6.73;3.50;;;;;;;;;;5056803;28;20226;-65
2021/12/14 00:30:42;;;;;;;5.27;3.07;;;;;;;;;;5057911;28;20592;-65
2021/12/14 00:33:11;;;;;;;4.17;3.37;;;;;;;;;;5056164;28;20179;-65
2021/12/14 00:35:38;;;;;;;4.30;3.33;;;;;;;;;;5059634;28;20155;-65
2021/12/14 00:38:04;;;;;;;4.33;3.60;;;;;;;;;;5040551;28;20211;-65
2021/12/14 00:40:33;;;;;;;5.17;3.13;;;;;;;;;;5058324;28;20238;-65
2021/12/14 00:43:00;;;;;;;4.63;3.60;;;;;;;;;;5058921;28;20194;-65
2021/12/14 00:45:27;;;;;;;4.03;3.63;;;;;;;;;;5041255;28;20210;-65
2021/12/14 00:47:53;;;;;;;4.43;4.03;;;;;;;;;;5059659;28;20199;-65
2021/12/14 00:50:22;;;;;;;5.03;3.93;;;;;;;;;;5060021;28;20206;-64
2021/12/14 00:52:48;;;;;;;5.07;4.13;;;;;;;;;;5056795;28;20183;-65
2021/12/14 00:55:17;;;;;;;5.40;4.30;;;;;;;;;;5037574;28;20190;-66
2021/12/14 00:57:43;;;;;;;4.60;4.13;;;;;;;;;;5051981;28;20215;-65
2021/12/14 01:00:11;;;;;;;4.70;4.30;;;;;;;;;;5035514;28;20183;-65
2021/12/14 01:02:37;;;;;;;4.40;4.00;;;;;;;;;;5050912;28;20176;-65
2021/12/14 01:05:07;;;;;;;4.50;3.83;;;;;;;;;;5036421;28;20237;-65
2021/12/14 01:07:33;;;;;;;6.97;4.30;;;;;;;;;;5056209;28;20198;-65
2021/12/14 01:10:01;;;;;;;7.10;4.23;;;;;;;;;;5057385;28;20219;-65
2021/12/14 01:12:36;;;;;;;6.13;3.97;;;;;;;;;;5056276;28;20182;-65
2021/12/14 01:15:27;;;;;;;6.10;5.10;;;;;;;;;;5040111;28;20155;-65
2021/12/14 01:18:02;;;;;;;4.87;4.37;;;;;;;;;;5039424;28;20222;-65
2021/12/14 01:20:59;;;;;;;6.70;4.80;;;;;;;;;;5056782;28;20226;-64
2021/12/14 01:23:30;;;;;;;5.63;4.43;;;;;;;;;;4973967;28;20255;-62
2021/12/14 01:25:59;;;;;;;5.47;4.30;;;;;;;;;;4976641;28;20256;-63
2021/12/14 01:28:26;;;;;;;8.97;4.53;;;;;;;;;;4959084;28;20177;-63
2021/12/14 01:31:13;;;;;;;9.00;4.37;;;;;;;;;;4976279;28;20200;-63
2021/12/14 01:33:41;;;;;;;5.97;5.10;;;;;;;;;;4976531;28;20533;-64
2021/12/14 01:36:10;;;;;;;5.27;4.73;;;;;;;;;;4976556;28;20169;-63
2021/12/14 01:38:46;;;;;;;5.30;4.80;;;;;;;;;;4976237;28;20181;-63
2021/12/14 01:41:15;;;;;;;11.77;4.70;;;;;;;;;;4976083;28;20193;-64
2021/12/14 01:43:50;;;;;;;6.27;4.63;;;;;;;;;;4958584;28;20297;-63
2021/12/14 01:46:18;;;;;;;6.30;4.87;;;;;;;;;;4976006;28;20200;-63
2021/12/14 01:48:44;;;;;;;5.23;4.70;;;;;;;;;;4958597;28;20248;-63
2021/12/14 01:51:10;;;;;;;5.33;4.37;;;;;;;;;;4975759;28;20288;-63
2021/12/14 01:53:38;;;;;;;5.30;4.80;;;;;;;;;;4976046;28;20181;-64
2021/12/14 01:56:06;;;;;;;7.67;5.00;;;;;;;;;;4975811;28;20184;-63
2021/12/14 01:58:36;;;;;;;8.60;5.13;;;;;;;;;;4975995;28;20192;-63
2021/12/14 02:01:05;;;;;;;6.67;5.13;;;;;;;;;;4975557;28;20198;-63
2021/12/14 02:03:33;;;;;;;6.17;5.00;;;;;;;;;;4975508;28;20201;-64
2021/12/14 02:05:59;;;;;;;6.33;5.10;;;;;;;;;;4975676;28;20645;-64
2021/12/14 02:08:28;;;;;;;7.20;5.00;;;;;;;;;;4975857;28;20240;-64
2021/12/14 02:10:56;;;;;;;5.87;4.97;;;;;;;;;;4975385;28;20574;-61
2021/12/14 02:13:26;;;;;;;7.07;4.73;;;;;;;;;;4975522;28;20177;-63
2021/12/14 02:15:52;;;;;;;6.43;5.50;;;;;;;;;;4957866;28;20209;-63
2021/12/14 02:18:19;;;;;;;7.40;5.73;;;;;;;;;;4975363;28;20274;-63
2021/12/14 02:20:47;;;;;;;6.40;5.43;;;;;;;;;;4975131;28;20268;-62
2021/12/14 02:23:14;;;;;;;6.40;5.80;;;;;;;;;;4975694;28;20224;-62
2021/12/14 02:25:40;;;;;;;8.20;5.80;;;;;;;;;;4975415;28;20177;-62
2021/12/14 02:28:07;;;;;;;6.93;6.03;;;;;;;;;;4975672;28;20618;-63
2021/12/14 02:30:34;;;;;;;6.67;5.77;;;;;;;;;;4975044;28;20177;-63
2021/12/14 02:33:09;;;;;;;6.10;5.50;;;;;;;;;;4958533;28;20219;-63
2021/12/14 02:35:35;;;;;;;7.67;6.33;;;;;;;;;;4975114;28;20165;-63
2021/12/14 02:38:02;;;;;;;6.53;5.93;;;;;;;;;;4975140;28;20210;-64
2021/12/14 02:40:54;;;;;;;7.10;5.80;;;;;;;;;;4974810;28;20200;-63
2021/12/14 02:43:23;;;;;;;7.97;6.17;;;;;;;;;;4965054;28;20197;-63
2021/12/14 02:45:49;;;;;;;9.43;6.10;;;;;;;;;;4975443;28;20591;-63
2021/12/14 02:48:15;;;;;;;7.73;6.27;;;;;;;;;;4974931;28;20173;-63
2021/12/14 02:50:43;;;;;;;9.13;6.53;;;;;;;;;;4974715;28;20300;-64
2021/12/14 02:53:10;;;;;;;7.83;6.40;;;;;;;;;;4974998;28;20180;-64
2021/12/14 02:55:36;;;;;;;7.43;6.60;;;;;;;;;;4974754;28;20190;-63
2021/12/14 02:58:05;;;;;;;12.27;7.33;;;;;;;;;;4974755;28;20192;-62
2021/12/14 03:00:44;;;;;;;10.77;7.90;;;;;;;;;;4974974;28;20181;-63
2021/12/14 03:03:10;;;;;;;10.43;8.17;;;;;;;;;;4974642;28;20185;-62
2021/12/14 03:05:39;;;;;;;8.53;7.07;;;;;;;;;;4974792;28;20188;-64
2021/12/14 03:08:08;;;;;;;16.47;7.97;;;;;;;;;;4957495;28;20613;-63
2021/12/14 03:10:51;;;;;;;10.17;7.90;;;;;;;;;;4957184;28;20656;-64
2021/12/14 03:13:17;;;;;;;10.10;8.43;;;;;;;;;;4974968;28;20173;-63
2021/12/14 03:15:48;;;;;;;10.37;8.40;;;;;;;;;;4974719;28;20231;-64
2021/12/14 03:18:16;;;;;;;11.20;9.07;;;;;;;;;;4974544;28;20244;-63
2021/12/14 03:20:47;;;;;;;12.83;8.53;;;;;;;;;;4974321;28;20201;-64
2021/12/14 03:23:18;;;;;;;12.40;9.87;;;;;;;;;;4974688;28;20638;-64
2021/12/14 03:25:47;;;;;;;15.07;9.27;;;;;;;;;;4957146;28;20561;-62
2021/12/14 03:28:14;;;;;;;12.50;9.33;;;;;;;;;;4960036;28;20240;-64
2021/12/14 03:30:46;;;;;;;13.50;10.00;;;;;;;;;;4978277;28;20181;-63
2021/12/14 03:33:17;;;;;;;15.43;10.97;;;;;;;;;;4978243;28;20272;-64
2021/12/14 03:35:51;;;;;;;14.60;10.30;;;;;;;;;;4960910;28;20181;-64
2021/12/14 03:38:25;;;;;;;14.90;10.87;;;;;;;;;;4978420;28;20181;-62
2021/12/14 03:41:02;;;;;;;14.90;10.80;;;;;;;;;;4978406;28;20279;-64
2021/12/14 03:43:28;;;;;;;14.13;11.43;;;;;;;;;;4960792;28;20320;-63
2021/12/14 03:45:55;;;;;;;14.50;11.13;;;;;;;;;;4960770;28;20181;-63
2021/12/14 03:48:22;;;;;;;18.07;11.93;;;;;;;;;;4977978;28;20185;-63
2021/12/14 03:50:48;;;;;;;17.73;13.03;;;;;;;;;;4978032;28;20205;-64
2021/12/14 03:53:18;;;;;;;17.13;11.57;;;;;;;;;;4978458;28;20189;-63
2021/12/14 03:55:46;;;;;;;17.80;12.47;;;;;;;;;;4960512;28;20653;-62
2021/12/14 03:58:15;;;;;;;20.20;12.47;;;;;;;;;;4978090;28;20645;-63
2021/12/14 04:00:47;;;;;;;17.37;12.57;;;;;;;;;;4977702;28;20181;-63
2021/12/14 04:03:15;;;;;;;20.20;12.80;;;;;;;;;;4960753;28;20557;-63
2021/12/14 04:05:42;;;;;;;18.40;13.27;;;;;;;;;;4977728;28;20653;-63
2021/12/14 04:08:08;;;;;;;21.33;13.20;;;;;;;;;;4977847;28;20173;-63
2021/12/14 04:10:36;;;;;;;20.70;13.53;;;;;;;;;;4960315;28;20183;-63
2021/12/14 04:13:02;;;;;;;21.17;13.80;;;;;;;;;;4977894;28;20188;-63
2021/12/14 04:15:28;;;;;;;23.83;13.87;;;;;;;;;;4977557;28;20646;-64
2021/12/14 04:17:54;;;;;;;20.63;13.47;;;;;;;;;;4977640;28;20184;-62
2021/12/14 04:20:25;;;;;;;24.93;14.53;;;;;;;;;;4977779;28;20692;-63
2021/12/14 04:22:52;;;;;;;19.60;13.67;;;;;;;;;;4960146;28;20229;-64
2021/12/14 04:25:19;;;;;;;22.57;14.17;;;;;;;;;;4960031;28;20204;-64
2021/12/14 04:27:45;;;;;;;22.60;13.67;;;;;;;;;;4977432;28;20668;-63
2021/12/14 04:30:13;;;;;;;23.53;14.97;;;;;;;;;;4977850;28;20177;-63
2021/12/14 04:32:39;;;;;;;24.03;15.30;;;;;;;;;;4977199;28;20280;-64
2021/12/14 04:35:07;;;;;;;24.23;14.73;;;;;;;;;;4977570;28;20268;-64
2021/12/14 04:37:38;;;;;;;23.60;14.80;;;;;;;;;;4977078;28;20217;-63
2021/12/14 04:53:44;;;;;;;24.80;15.63;;;;;;;;;;4978992;28;20228;-63
2021/12/14 04:56:12;;;;;;;27.10;16.43;;;;;;;;;;4978475;28;20205;-64
2021/12/14 04:58:42;;;;;;;24.57;15.93;;;;;;;;;;4978508;28;20556;-61
2021/12/14 05:01:09;;;;;;;24.03;15.97;;;;;;;;;;4978592;28;20205;-63
2021/12/14 05:03:44;;;;;;;23.93;15.23;;;;;;;;;;4977692;28;20264;-63
2021/12/14 05:06:17;;;;;;;24.43;15.17;;;;;;;;;;4977328;28;20189;-63
2021/12/14 05:11:59;;;;;;;25.50;15.63;;;;;;;;;;4977145;28;20255;-63
2021/12/14 05:14:26;;;;;;;24.70;15.53;;;;;;;;;;4977562;28;20166;-63
2021/12/14 05:16:56;;;;;;;23.53;16.17;;;;;;;;;;4976955;28;20177;-64
2021/12/14 05:19:23;;;;;;;22.77;16.37;;;;;;;;;;4959153;28;20216;-64
2021/12/14 05:21:50;;;;;;;24.10;15.90;;;;;;;;;;4959185;28;20307;-64
2021/12/14 05:24:18;;;;;;;30.77;18.00;;;;;;;;;;4976194;28;20267;-64
2021/12/14 05:26:45;;;;;;;27.60;16.63;;;;;;;;;;4976358;28;20280;-65
2021/12/14 05:29:12;;;;;;;25.70;17.20;;;;;;;;;;4958889;28;20188;-64
2021/12/14 05:31:42;;;;;;;23.27;15.73;;;;;;;;;;4976227;28;20197;-64
2021/12/14 05:34:08;;;;;;;24.73;15.13;;;;;;;;;;4976187;28;20680;-64
2021/12/14 05:36:34;;;;;;;26.30;16.10;;;;;;;;;;4975994;28;20216;-62
2021/12/14 05:39:24;;;;;;;31.43;17.07;;;;;;;;;;4976006;28;20182;-62
2021/12/14 05:44:40;;;;;;;23.13;15.63;;;;;;;;;;4976455;28;20197;-64
2021/12/14 05:47:10;;;;;;;27.03;17.10;;;;;;;;;;4958499;28;20273;-64
2021/12/14 05:49:38;;;;;;;25.70;16.40;;;;;;;;;;4975363;28;20232;-62
2021/12/14 05:52:07;;;;;;;22.97;15.43;;;;;;;;;;4975726;28;20201;-64
2021/12/14 05:54:34;;;;;;;24.40;16.53;;;;;;;;;;4975860;28;20646;-63
2021/12/14 05:57:02;;;;;;;21.70;15.03;;;;;;;;;;4975677;28;20624;-63
2021/12/14 05:59:30;;;;;;;27.40;17.07;;;;;;;;;;4975618;28;20604;-64
2021/12/14 06:01:56;;;;;;;24.43;15.47;;;;;;;;;;4975521;28;20208;-62
2021/12/14 06:04:25;;;;;;;25.73;16.63;;;;;;;;;;4975530;28;20243;-63
2021/12/14 06:06:52;;;;;;;24.40;16.10;;;;;;;;;;4975534;28;20177;-64
2021/12/14 06:09:23;;;;;;;23.07;16.40;;;;;;;;;;4958256;28;20177;-63
2021/12/14 06:11:50;;;;;;;24.17;17.90;;;;;;;;;;4975567;28;20688;-63
2021/12/14 06:14:21;;;;;;;25.07;17.20;;;;;;;;;;4976947;28;20200;-63
2021/12/14 06:16:48;;;;;;;21.73;15.30;;;;;;;;;;4975547;28;20181;-63
2021/12/14 06:19:21;;;;;;;20.90;15.33;;;;;;;;;;4975680;28;20185;-64
2021/12/14 06:21:49;;;;;;;23.67;15.77;;;;;;;;;;4957678;28;20220;-63
2021/12/14 06:24:15;;;;;;;23.50;15.80;;;;;;;;;;4975193;28;20204;-63
2021/12/14 06:26:52;;;;;;;24.27;15.37;;;;;;;;;;4975761;28;20536;-64
2021/12/14 06:29:22;;;;;;;22.10;14.53;;;;;;;;;;4975624;28;20173;-64
2021/12/14 06:31:49;;;;;;;21.43;15.43;;;;;;;;;;4975151;28;20205;-64
2021/12/14 06:34:20;;;;;;;22.27;14.73;;;;;;;;;;4975169;28;20181;-63
2021/12/14 06:36:48;;;;;;;22.40;15.20;;;;;;;;;;4975535;28;20193;-65
2021/12/14 06:39:14;;;;;;;18.37;14.23;;;;;;;;;;4974869;28;20182;-63
2021/12/14 06:41:40;;;;;;;21.73;14.00;;;;;;;;;;4974899;28;20205;-64
2021/12/14 06:44:06;;;;;;;19.93;14.20;;;;;;;;;;4957441;28;20231;-64
2021/12/14 06:46:38;;;;;;;22.20;14.43;;;;;;;;;;4974827;28;20185;-62
2021/12/14 06:49:07;;;;;;;19.00;14.33;;;;;;;;;;4974689;28;20215;-62
2021/12/14 06:51:39;;;;;;;18.90;14.13;;;;;;;;;;4974800;28;20204;-64
2021/12/14 06:54:16;;;;;;;19.77;13.67;;;;;;;;;;4974859;28;20186;-64
2021/12/14 06:56:42;;;;;;;19.70;13.83;;;;;;;;;;4975305;28;20252;-63
2021/12/14 06:59:10;;;;;;;18.90;13.43;;;;;;;;;;4957399;28;20216;-63
2021/12/14 07:01:37;;;;;;;19.73;13.73;;;;;;;;;;4974205;28;20694;-64
2021/12/14 07:04:05;;;;;;;18.17;13.60;;;;;;;;;;4957289;28;20224;-64
2021/12/14 07:06:32;;;;;;;18.23;13.27;;;;;;;;;;4974695;28;20279;-63
2021/12/14 07:09:16;;;;;;;19.40;13.87;;;;;;;;;;4974861;28;20260;-63
2021/12/14 07:11:45;;;;;;;17.50;13.40;;;;;;;;;;4974790;28;20694;-63
2021/12/14 07:14:34;;;;;;;18.43;13.20;;;;;;;;;;4974803;28;20179;-63
2021/12/14 07:17:16;;;;;;;20.70;14.73;;;;;;;;;;4966667;28;20680;-64
2021/12/14 07:19:48;;;;;;;16.97;12.87;;;;;;;;;;4957251;28;20679;-64
2021/12/14 07:22:32;;;;;;;17.27;13.20;;;;;;;;;;4957472;28;20235;-63
2021/12/14 07:25:02;;;;;;;20.20;13.63;;;;;;;;;;4941321;28;20204;-64
2021/12/14 07:27:29;;;;;;;19.33;14.07;;;;;;;;;;4957333;28;20188;-64
2021/12/14 07:30:08;;;;;;;18.87;13.97;;;;;;;;;;4957087;28;20181;-64
2021/12/14 07:32:38;;;;;;;17.70;13.03;;;;;;;;;;4957013;28;20205;-63
2021/12/14 07:35:14;;;;;;;17.37;13.27;;;;;;;;;;4957066;28;20284;-64
2021/12/14 07:37:40;;;;;;;18.73;14.20;;;;;;;;;;4974917;28;20656;-63
2021/12/14 07:40:06;;;;;;;18.87;13.77;;;;;;;;;;4974537;28;20177;-63
2021/12/14 07:42:32;;;;;;;34.87;26.73;;;;;;;;;;4974463;28;20214;-63
2021/12/14 07:44:58;;;;;;;25.10;18.03;;;;;;;;;;4975192;28;20204;-64
2021/12/14 07:47:24;;;;;;;22.80;16.90;;;;;;;;;;4975068;28;20219;-63
2021/12/14 07:49:55;;;;;;;26.80;19.93;;;;;;;;;;4974853;28;20178;-64
2021/12/14 07:52:24;;;;;;;19.10;15.23;;;;;;;;;;4957167;28;20201;-64
2021/12/14 07:54:58;;;;;;;22.77;15.67;;;;;;;;;;4974473;28;20189;-64
2021/12/14 07:57:27;;;;;;;22.30;15.77;;;;;;;;;;4974379;28;20247;-64
2021/12/14 07:59:53;;;;;;;25.67;19.17;;;;;;;;;;4974233;28;20185;-63
2021/12/14 08:02:21;;;;;;;24.87;18.20;;;;;;;;;;4956779;28;20677;-62
2021/12/14 08:05:07;;;;;;;22.77;16.30;;;;;;;;;;4956714;28;20243;-63
2021/12/14 08:07:38;;;;;;;19.93;14.63;;;;;;;;;;4944807;28;20227;-63
2021/12/14 08:10:08;;;;;;;28.00;22.37;;;;;;;;;;4974128;28;20241;-63
2021/12/14 08:12:36;;;;;;;25.70;19.17;;;;;;;;;;4957201;28;20205;-63
2021/12/14 08:15:11;;;;;;;25.57;20.27;;;;;;;;;;4977765;28;20190;-63
2021/12/14 08:17:38;;;;;;;25.27;19.63;;;;;;;;;;4977726;28;20187;-64
2021/12/14 08:20:06;;;;;;;21.90;15.73;;;;;;;;;;4977828;28;20212;-63
2021/12/14 08:22:33;;;;;;;25.20;18.33;;;;;;;;;;4960098;28;20304;-63
2021/12/14 08:25:00;;;;;;;29.60;22.33;;;;;;;;;;4977327;28;20740;-64
2021/12/14 08:27:28;;;;;;;21.63;16.50;;;;;;;;;;4977492;28;20216;-63
2021/12/14 08:29:56;;;;;;;23.70;16.10;;;;;;;;;;4977667;28;20178;-65
2021/12/14 08:32:24;;;;;;;23.57;15.77;;;;;;;;;;4977493;28;20197;-64
2021/12/14 08:34:51;;;;;;;22.20;15.70;;;;;;;;;;4977592;28;20185;-64
2021/12/14 08:37:18;;;;;;;22.53;16.33;;;;;;;;;;4977135;28;20244;-64
2021/12/14 08:40:11;;;;;;;22.63;15.13;;;;;;;;;;4977258;28;20185;-64
2021/12/14 08:42:49;;;;;;;22.17;14.53;;;;;;;;;;4974348;28;20213;-64
2021/12/14 08:45:25;;;;;;;20.73;14.83;;;;;;;;;;4959869;28;20201;-64
2021/12/14 08:48:13;;;;;;;19.80;14.07;;;;;;;;;;4959656;28;20173;-63
2021/12/14 08:50:47;;;;;;;20.13;14.30;;;;;;;;;;4977242;28;20174;-64
2021/12/14 08:53:14;;;;;;;19.93;14.43;;;;;;;;;;4959757;28;20195;-64
2021/12/14 08:55:43;;;;;;;18.97;13.97;;;;;;;;;;4977081;28;20182;-64
2021/12/14 08:58:09;;;;;;;20.67;14.33;;;;;;;;;;4976914;28;20181;-64
2021/12/14 09:00:37;;;;;;;23.63;15.10;;;;;;;;;;4977002;28;20189;-64
2021/12/14 09:03:04;;;;;;;18.80;14.07;;;;;;;;;;4976721;28;20220;-64
2021/12/14 09:05:41;;;;;;;19.87;13.97;;;;;;;;;;4959325;28;20236;-64
2021/12/14 09:08:08;;;;;;;20.63;15.27;;;;;;;;;;4976977;28;20165;-65
2021/12/14 09:10:37;;;;;;;21.27;15.03;;;;;;;;;;4959272;28;20332;-63
2021/12/14 09:13:05;;;;;;;21.20;14.37;;;;;;;;;;4976562;28;20184;-64
2021/12/14 09:15:34;;;;;;;22.13;15.37;;;;;;;;;;4959200;28;20231;-63
2021/12/14 09:18:00;;;;;;;22.97;14.97;;;;;;;;;;4959165;28;20182;-64
2021/12/14 09:20:31;;;;;;;22.27;15.17;;;;;;;;;;4976419;28;20562;-63
2021/12/14 09:23:00;;;;;;;20.73;14.70;;;;;;;;;;4976330;28;20569;-64
2021/12/14 09:25:28;;;;;;;22.37;15.90;;;;;;;;;;4975523;28;20208;-63
2021/12/14 09:27:55;;;;;;;21.53;14.87;;;;;;;;;;4959198;28;20181;-64
2021/12/14 09:30:23;;;;;;;22.53;15.30;;;;;;;;;;4977440;28;20228;-63
2021/12/14 09:32:49;;;;;;;21.50;15.50;;;;;;;;;;4959809;28;20201;-64
2021/12/14 09:35:17;;;;;;;22.27;17.00;;;;;;;;;;4977068;28;20595;-63
2021/12/14 09:37:46;;;;;;;23.13;15.87;;;;;;;;;;4976205;28;20192;-65
2021/12/14 09:40:15;;;;;;;22.10;15.77;;;;;;;;;;4976182;28;20209;-63
2021/12/14 09:42:41;;;;;;;23.33;16.67;;;;;;;;;;4958599;28;20666;-62
2021/12/14 09:45:10;;;;;;;19.97;14.87;;;;;;;;;;4976282;28;20205;-64
2021/12/14 09:47:36;;;;;;;32.67;21.83;;;;;;;;;;4975913;28;20664;-64
2021/12/14 09:50:06;;;;;;;21.73;15.33;;;;;;;;;;4975910;28;20170;-63
2021/12/14 09:52:34;;;;;;;23.10;16.70;;;;;;;;;;4976256;28;20188;-64
2021/12/14 09:55:01;;;;;;;22.40;16.40;;;;;;;;;;4975753;28;20189;-64
2021/12/14 09:57:29;;;;;;;21.80;15.63;;;;;;;;;;4975746;28;20633;-63
2021/12/14 09:59:56;;;;;;;21.43;15.53;;;;;;;;;;4975587;28;20181;-63
2021/12/14 10:02:22;;;;;;;20.40;15.23;;;;;;;;;;4975645;28;20258;-63
2021/12/14 10:04:50;;;;;;;20.63;15.73;;;;;;;;;;4958268;28;20679;-61
2021/12/14 10:07:17;;;;;;;20.07;15.83;;;;;;;;;;4975640;28;20226;-63
2021/12/14 10:09:45;;;;;;;21.40;16.20;;;;;;;;;;4975762;28;20696;-64
2021/12/14 10:12:41;;;;;;;21.50;15.13;;;;;;;;;;4958369;28;20624;-62
2021/12/14 10:15:11;;;;;;;20.47;15.50;;;;;;;;;;4975181;28;20240;-63
2021/12/14 10:17:39;;;;;;;19.67;14.83;;;;;;;;;;4975412;28;20170;-63
2021/12/14 10:20:06;;;;;;;20.20;15.33;;;;;;;;;;4975430;28;20216;-64
2021/12/14 10:22:32;;;;;;;20.03;15.17;;;;;;;;;;4975029;28;20213;-64
2021/12/14 10:25:00;;;;;;;21.53;15.67;;;;;;;;;;4975109;28;20205;-63
2021/12/14 10:27:28;;;;;;;24.23;16.00;;;;;;;;;;4957943;28;20208;-63
2021/12/14 10:29:55;;;;;;;20.97;15.40;;;;;;;;;;4975090;28;20192;-63
2021/12/14 10:32:24;;;;;;;22.03;16.77;;;;;;;;;;4974923;28;20189;-63
2021/12/14 10:34:52;;;;;;;22.77;16.47;;;;;;;;;;4975096;28;20185;-64
2021/12/14 10:37:36;;;;;;;22.63;16.13;;;;;;;;;;4975174;28;20227;-63
2021/12/14 10:43:31;;;;;;;21.17;16.33;;;;;;;;;;4975117;28;20223;-64
2021/12/14 10:45:41;;;;;;;21.77;15.93;;;;;;;;;;4969614;28;20279;-63
2021/12/14 10:48:07;;;;;;;23.70;16.40;;;;;;;;;;4957483;28;20610;-64
2021/12/14 10:50:36;;;;;;;22.33;16.57;;;;;;;;;;4975242;28;20181;-64
2021/12/14 10:53:02;;;;;;;22.97;17.00;;;;;;;;;;4974992;28;20737;-63
2021/12/14 10:55:35;;;;;;;21.77;15.93;;;;;;;;;;4975357;28;20176;-62
2021/12/14 10:58:01;;;;;;;22.50;16.63;;;;;;;;;;4975221;28;20150;-63
2021/12/14 11:00:33;;;;;;;21.10;16.33;;;;;;;;;;4974614;28;20213;-64
2021/12/14 11:03:02;;;;;;;26.40;18.33;;;;;;;;;;4957577;28;20589;-63
2021/12/14 11:05:30;;;;;;;21.27;15.67;;;;;;;;;;4957201;28;20208;-64
2021/12/14 11:07:56;;;;;;;19.37;15.33;;;;;;;;;;4974488;28;20187;-64
2021/12/14 11:10:25;;;;;;;22.53;16.20;;;;;;;;;;4974846;28;20253;-62
2021/12/14 11:12:54;;;;;;;30.90;22.63;;;;;;;;;;4974690;28;20201;-63
2021/12/14 11:15:22;;;;;;;24.30;18.13;;;;;;;;;;4957174;28;20646;-64
2021/12/14 11:18:10;;;;;;;24.17;18.70;;;;;;;;;;4975108;28;20238;-63
2021/12/14 11:20:43;;;;;;;23.53;18.33;;;;;;;;;;4974648;28;20701;-62
2021/12/14 11:23:13;;;;;;;26.50;19.83;;;;;;;;;;4974371;28;20255;-64
2021/12/14 11:25:44;;;;;;;23.90;17.43;;;;;;;;;;4974289;28;20223;-64
2021/12/14 11:28:12;;;;;;;24.57;18.07;;;;;;;;;;4974611;28;20161;-63
2021/12/14 11:30:42;;;;;;;26.27;18.80;;;;;;;;;;4974766;28;20618;-63
2021/12/14 11:33:15;;;;;;;25.30;18.43;;;;;;;;;;4974211;28;20196;-63
2021/12/14 11:35:50;;;;;;;27.43;18.63;;;;;;;;;;4957025;28;20264;-63
2021/12/14 11:38:25;;;;;;;28.27;19.07;;;;;;;;;;4957618;28;20308;-62
2021/12/14 11:40:52;;;;;;;24.40;18.70;;;;;;;;;;4974201;28;20192;-63
2021/12/14 11:43:23;;;;;;;26.77;18.87;;;;;;;;;;4974201;28;20191;-63
2021/12/14 11:45:50;;;;;;;26.37;18.93;;;;;;;;;;4974190;28;20204;-64
2021/12/14 11:48:26;;;;;;;28.20;18.27;;;;;;;;;;4958222;28;20185;-63
2021/12/14 11:50:52;;;;;;;26.67;19.47;;;;;;;;;;4978328;28;20231;-63
2021/12/14 11:53:21;;;;;;;25.33;19.20;;;;;;;;;;4960707;28;20224;-61
2021/12/14 11:55:47;;;;;;;28.83;20.00;;;;;;;;;;4978610;28;20264;-62
2021/12/14 11:58:17;;;;;;;25.17;17.87;;;;;;;;;;4977918;28;20216;-62
2021/12/14 12:00:49;;;;;;;29.70;20.07;;;;;;;;;;4978244;28;20545;-63
2021/12/14 12:03:23;;;;;;;26.80;18.90;;;;;;;;;;4960793;28;20199;-64
2021/12/14 12:06:00;;;;;;;26.80;19.87;;;;;;;;;;4977950;28;20218;-63
2021/12/14 12:11:12;;;;;;;25.23;18.13;;;;;;;;;;4978010;28;20204;-63
2021/12/14 12:13:39;;;;;;;27.77;20.20;;;;;;;;;;4977958;28;20177;-63
2021/12/14 12:16:11;;;;;;;28.00;19.83;;;;;;;;;;4960188;28;20260;-63
2021/12/14 12:18:37;;;;;;;25.03;18.80;;;;;;;;;;4977708;28;20638;-63
2021/12/14 12:21:04;;;;;;;29.47;18.97;;;;;;;;;;4977508;28;20213;-63
2021/12/14 12:23:33;;;;;;;28.17;20.50;;;;;;;;;;4977508;28;20176;-63
2021/12/14 12:26:07;;;;;;;25.37;18.80;;;;;;;;;;4977616;28;20185;-63
2021/12/14 12:28:37;;;;;;;23.67;17.73;;;;;;;;;;4977594;28;20165;-63
2021/12/14 12:31:07;;;;;;;25.97;18.80;;;;;;;;;;4977712;28;20292;-64
2021/12/14 12:33:33;;;;;;;27.23;20.33;;;;;;;;;;4977664;28;20681;-63
2021/12/14 12:36:02;;;;;;;26.17;18.77;;;;;;;;;;4959807;28;20187;-63
2021/12/14 12:38:28;;;;;;;25.30;19.23;;;;;;;;;;4977140;28;20184;-63
2021/12/14 12:41:01;;;;;;;26.67;19.60;;;;;;;;;;4977267;28;20197;-63
2021/12/14 12:43:29;;;;;;;26.23;19.47;;;;;;;;;;4977549;28;20651;-63
2021/12/14 12:46:07;;;;;;;29.73;19.13;;;;;;;;;;4977605;28;20193;-63
2021/12/14 12:48:44;;;;;;;28.87;20.13;;;;;;;;;;4977057;28;20171;-63
2021/12/14 12:51:11;;;;;;;27.67;19.60;;;;;;;;;;4959505;28;20204;-63
2021/12/14 12:53:36;;;;;;;29.40;21.43;;;;;;;;;;4977188;28;20185;-62
2021/12/14 12:56:12;;;;;;;26.60;20.37;;;;;;;;;;4976825;28;20184;-61
2021/12/14 12:58:42;;;;;;;25.53;18.60;;;;;;;;;;4976636;28;20263;-61
2021/12/14 13:01:08;;;;;;;27.33;20.07;;;;;;;;;;4975990;28;20196;-62
2021/12/14 13:03:36;;;;;;;25.50;19.07;;;;;;;;;;4976728;28;20185;-63
2021/12/14 13:06:07;;;;;;;27.73;20.60;;;;;;;;;;4959559;28;20185;-61
2021/12/14 13:08:35;;;;;;;28.57;20.90;;;;;;;;;;4976897;28;20182;-63
2021/12/14 13:11:01;;;;;;;24.70;19.20;;;;;;;;;;4976824;28;20201;-62
2021/12/14 13:13:29;;;;;;;29.33;20.60;;;;;;;;;;4976853;28;20165;-62
2021/12/14 13:15:58;;;;;;;28.17;20.97;;;;;;;;;;4959560;28;20656;-61
2021/12/14 13:18:24;;;;;;;27.20;20.43;;;;;;;;;;4976593;28;20224;-61
2021/12/14 13:20:52;;;;;;;26.37;19.87;;;;;;;;;;4976347;28;20649;-61
2021/12/14 13:23:23;;;;;;;28.37;20.87;;;;;;;;;;4976939;28;20699;-61
2021/12/14 13:25:50;;;;;;;28.63;20.23;;;;;;;;;;4959137;28;20205;-62
2021/12/14 13:28:16;;;;;;;31.00;19.27;;;;;;;;;;4976505;28;20523;-61
2021/12/14 13:30:42;;;;;;;26.43;20.23;;;;;;;;;;4976712;28;20229;-62
2021/12/14 13:33:29;;;;;;;27.90;20.40;;;;;;;;;;4976604;28;20550;-62
2021/12/14 13:35:55;;;;;;;25.70;19.50;;;;;;;;;;4958966;28;20269;-62
2021/12/14 13:38:21;;;;;;;25.03;19.10;;;;;;;;;;4958943;28;20225;-62
2021/12/14 13:40:48;;;;;;;26.93;19.73;;;;;;;;;;4976162;28;20181;-62
2021/12/14 13:43:16;;;;;;;26.43;20.23;;;;;;;;;;4958663;28;20255;-62
2021/12/14 13:45:51;;;;;;;31.57;19.83;;;;;;;;;;4975819;28;20205;-62
2021/12/14 13:48:21;;;;;;;28.90;19.13;;;;;;;;;;4975953;28;20203;-62
2021/12/14 13:51:00;;;;;;;26.07;19.77;;;;;;;;;;4958458;28;20181;-62
2021/12/14 13:53:26;;;;;;;29.53;20.13;;;;;;;;;;4975604;28;20181;-62
2021/12/14 13:55:53;;;;;;;23.97;18.43;;;;;;;;;;4975947;28;20182;-62
2021/12/14 13:58:21;;;;;;;31.03;20.17;;;;;;;;;;4975711;28;20235;-62
2021/12/14 14:00:53;;;;;;;27.97;19.90;;;;;;;;;;4975568;28;20189;-62
2021/12/14 14:03:22;;;;;;;30.93;21.17;;;;;;;;;;4975630;28;20181;-62
2021/12/14 14:05:49;;;;;;;26.70;19.90;;;;;;;;;;4975485;28;20279;-62
2021/12/14 14:08:19;;;;;;;29.23;19.53;;;;;;;;;;4958155;28;20216;-63
2021/12/14 14:10:47;;;;;;;27.20;20.23;;;;;;;;;;4975150;28;20240;-64
2021/12/14 14:13:22;;;;;;;28.63;20.57;;;;;;;;;;4957917;28;20205;-62
2021/12/14 14:15:50;;;;;;;25.70;19.97;;;;;;;;;;4958245;28;20185;-62
2021/12/14 14:18:16;;;;;;;38.03;24.87;;;;;;;;;;4975337;28;20185;-62
2021/12/14 14:20:50;;;;;;;48.13;29.47;;;;;;;;;;4975532;28;20285;-62
2021/12/14 14:23:24;;;;;;;30.43;21.27;;;;;;;;;;4975288;28;20220;-62
2021/12/14 14:25:54;;;;;;;29.47;20.23;;;;;;;;;;4975235;28;20203;-62
2021/12/14 14:28:28;;;;;;;32.60;20.77;;;;;;;;;;4975097;28;20558;-62
2021/12/14 14:30:56;;;;;;;33.20;23.63;;;;;;;;;;4975450;28;20247;-62
2021/12/14 14:33:42;;;;;;;31.63;24.10;;;;;;;;;;4975331;28;20227;-62
2021/12/14 14:36:08;;;;;;;35.20;25.03;;;;;;;;;;4975717;28;20162;-62
2021/12/14 14:38:39;;;;;;;30.27;20.37;;;;;;;;;;4957692;28;20246;-62
2021/12/14 14:41:05;;;;;;;34.50;23.33;;;;;;;;;;4975263;28;20299;-62
2021/12/14 14:43:50;;;;;;;29.03;20.33;;;;;;;;;;4975249;28;20640;-62
2021/12/14 14:46:33;;;;;;;30.13;21.00;;;;;;;;;;4975364;28;20224;-61
2021/12/14 14:49:02;;;;;;;29.40;21.40;;;;;;;;;;4975146;28;20177;-62
2021/12/14 14:51:47;;;;;;;31.93;23.00;;;;;;;;;;4975463;28;20197;-61
2021/12/14 14:54:34;;;;;;;32.77;23.53;;;;;;;;;;4957624;28;20717;-62
2021/12/14 14:57:12;;;;;;;28.73;21.80;;;;;;;;;;4975114;28;20187;-62
2021/12/14 14:59:40;;;;;;;33.73;23.87;;;;;;;;;;4976769;28;20645;-63
2021/12/14 15:02:07;;;;;;;30.50;23.37;;;;;;;;;;4976004;28;20224;-63
2021/12/14 15:04:52;;;;;;;29.57;21.63;;;;;;;;;;4975926;28;20204;-63
2021/12/14 15:07:18;;;;;;;29.73;22.00;;;;;;;;;;4974770;28;20177;-63
2021/12/14 15:09:45;;;;;;;29.50;22.23;;;;;;;;;;4974757;28;20212;-63